Time;durP1;ratioP1;P1;durP2;ratioP2;P2;SDS_P1;SDS_P2;PMS_P1;PMS_P2;Temp;Humidity;BMP_temperature;BMP_pressure;BME280_temperature;BME280_humidity;BME280_pressure;Samples;Min_cycle;Max_cycle;Signal;HPM_P1;HPM_P2
2022/07/25 00:01:45;;;;;;;13.93;7.47;;;;;;;29.24;100.00;100921.66;5076085;28;20047;-53
2022/07/25 00:04:13;;;;;;;13.83;8.67;;;;;;;29.37;100.00;100915.19;5070347;28;20063;-49
2022/07/25 00:06:39;;;;;;;13.40;7.70;;;;;;;29.57;100.00;100912.97;5073599;28;20033;-51
2022/07/25 00:09:04;;;;;;;;;;;;;;;29.29;100.00;100908.53;5077174;28;20040;-50
2022/07/25 00:11:30;;;;;;;14.63;8.03;;;;;;;29.50;100.00;100902.44;5071385;28;19919;-52
2022/07/25 00:13:55;;;;;;;;;;;;;;;29.79;100.00;100905.69;5076233;28;20101;-53
2022/07/25 00:16:21;;;;;;;12.40;8.27;;;;;;;29.67;100.00;100904.41;5081183;28;19920;-49
2022/07/25 00:18:47;;;;;;;19.43;8.50;;;;;;;29.44;100.00;100898.22;5073924;28;20093;-49
2022/07/25 00:21:12;;;;;;;;;;;;;;;29.55;100.00;100898.72;5075080;28;20043;-48
2022/07/25 00:23:38;;;;;;;13.30;8.93;;;;;;;29.69;100.00;100899.38;5074746;28;19912;-51
2022/07/25 00:26:04;;;;;;;;;;;;;;;29.51;100.00;100887.53;5075350;28;20041;-49
2022/07/25 00:28:30;;;;;;;18.23;7.87;;;;;;;29.39;100.00;100877.13;5078868;28;19912;-48
2022/07/25 00:30:56;;;;;;;;;;;;;;;29.32;100.00;100869.34;5073671;28;20056;-53
2022/07/25 00:33:21;;;;;;;17.77;8.60;;;;;;;29.29;100.00;100867.22;5075435;28;19908;-52
2022/07/25 00:35:47;;;;;;;;;;;;;;;29.26;100.00;100859.63;5075561;28;20048;-51
2022/07/25 00:38:13;;;;;;;30.57;16.27;;;;;;;29.29;100.00;100860.91;5072656;28;19917;-48
2022/07/25 00:40:38;;;;;;;;;;;;;;;29.25;100.00;100855.25;5072633;28;20033;-50
2022/07/25 00:43:04;;;;;;;28.20;14.13;;;;;;;29.30;100.00;100855.09;5071274;28;19946;-51
2022/07/25 00:45:29;;;;;;;;;;;;;;;29.19;100.00;100854.59;5073448;28;20063;-53
2022/07/25 00:47:55;;;;;;;13.03;9.00;;;;;;;29.22;100.00;100853.13;5074343;28;19912;-52
2022/07/25 00:50:20;;;;;;;;;;;;;;;29.27;100.00;100843.91;5072263;28;20029;-53
2022/07/25 00:52:46;;;;;;;17.97;9.57;;;;;;;29.10;100.00;100850.22;5069730;28;19920;-52
2022/07/25 00:55:12;;;;;;;;;;;;;;;29.17;100.00;100845.03;5070187;28;20040;-51
2022/07/25 00:57:37;;;;;;;18.27;9.37;;;;;;;29.09;100.00;100838.38;5070820;28;19926;-51
2022/07/25 01:00:05;;;;;;;;;;;;;;;29.03;100.00;100836.94;5069756;28;20108;-51
2022/07/25 01:02:30;;;;;;;13.35;9.55;;;;;;;28.58;100.00;100832.41;5070871;28;19917;-53
2022/07/25 01:04:56;;;;;;;;;;;;;;;28.77;100.00;100827.44;5072603;28;20059;-48
2022/07/25 01:07:22;;;;;;;19.05;9.45;;;;;;;28.91;100.00;100818.28;5069391;28;20105;-50
2022/07/25 01:09:48;;;;;;;;;;;;;;;28.75;100.00;100813.19;5072641;28;20036;-48
2022/07/25 01:12:13;;;;;;;15.87;9.27;;;;;;;28.89;100.00;100813.09;5072061;28;19979;-52
2022/07/25 01:14:39;;;;;;;15.88;10.02;;;;;;;28.95;100.00;100816.50;5073881;28;20104;-48
2022/07/25 01:17:04;;;;;;;17.60;10.48;;;;;;;28.93;100.00;100812.44;5066878;28;20033;-50
2022/07/25 01:19:30;;;;;;;18.83;10.05;;;;;;;28.80;100.00;100808.69;5073816;28;20037;-49
2022/07/25 01:21:55;;;;;;;;;;;;;;;28.80;100.00;100811.47;5072256;28;20036;-49
2022/07/25 01:24:21;;;;;;;16.40;10.30;;;;;;;28.81;100.00;100807.56;5074942;28;19920;-48
2022/07/25 01:26:46;;;;;;;;;;;;;;;28.86;100.00;100808.25;5072106;28;20033;-49
2022/07/25 01:29:12;;;;;;;16.43;9.80;;;;;;;28.93;100.00;100799.50;5073090;28;19913;-50
2022/07/25 01:31:37;;;;;;;19.33;9.75;;;;;;;28.58;100.00;100800.22;5072829;28;20470;-49
2022/07/25 01:34:03;;;;;;;19.77;9.00;;;;;;;28.95;100.00;100794.50;5072448;28;20051;-49
2022/07/25 01:36:28;;;;;;;;;;;;;;;28.66;100.00;100798.63;5072640;28;20083;-48
2022/07/25 01:38:54;;;;;;;17.17;8.93;;;;;;;28.66;100.00;100790.38;5072270;28;19913;-49
2022/07/25 01:41:19;;;;;;;16.80;8.82;;;;;;;28.47;100.00;100790.63;5069064;28;20098;-54
2022/07/25 01:43:45;;;;;;;15.82;8.73;;;;;;;28.50;100.00;100783.69;5069902;28;20064;-52
2022/07/25 01:46:10;;;;;;;17.75;8.50;;;;;;;28.53;100.00;100783.03;5067433;28;20092;-50
2022/07/25 01:48:36;;;;;;;18.58;9.48;;;;;;;28.70;100.00;100785.84;5071982;28;20032;-49
2022/07/25 01:51:01;;;;;;;;;;;;;;;28.44;100.00;100781.09;5070993;28;20033;-50
2022/07/25 01:53:27;;;;;;;15.77;9.20;;;;;;;28.37;100.00;100772.47;5068175;28;19920;-48
2022/07/25 01:55:52;;;;;;;;;;;;;;;28.26;100.00;100771.16;5067970;28;20033;-50
2022/07/25 01:58:18;;;;;;;14.80;8.93;;;;;;;28.44;100.00;100769.25;5069654;28;20020;-51
2022/07/25 02:00:45;;;;;;;15.23;9.47;;;;;;;28.41;100.00;100767.97;5067234;28;20036;-53
2022/07/25 02:03:29;;;;;;;17.50;9.98;;;;;;;28.26;100.00;100760.16;5074044;28;20029;-52
2022/07/25 02:06:01;;;;;;;16.27;8.97;;;;;;;28.38;100.00;100757.63;5067714;28;20058;-52
2022/07/25 02:08:26;;;;;;;14.97;8.67;;;;;;;28.47;100.00;100754.88;5072560;28;20028;-54
2022/07/25 02:10:51;;;;;;;23.90;15.95;;;;;;;28.46;100.00;100745.81;5070212;28;20033;-53
2022/07/25 02:13:17;;;;;;;15.68;9.18;;;;;;;28.37;100.00;100747.72;5072000;28;20033;-53
2022/07/25 02:15:42;;;;;;;14.43;9.48;;;;;;;28.03;100.00;100741.78;5069657;28;20045;-50
2022/07/25 02:18:08;;;;;;;13.23;8.75;;;;;;;28.35;100.00;100750.00;5071526;28;20024;-53
2022/07/25 02:20:33;;;;;;;17.38;10.30;;;;;;;27.94;100.00;100751.13;5071349;28;20055;-55
2022/07/25 02:22:59;;;;;;;17.55;9.13;;;;;;;28.26;100.00;100768.41;5072845;28;20037;-53
2022/07/25 02:25:24;;;;;;;18.95;9.73;;;;;;;27.92;100.00;100756.91;5073741;28;20036;-55
2022/07/25 02:27:50;;;;;;;16.05;9.40;;;;;;;28.31;100.00;100760.84;5073287;28;20029;-53
2022/07/25 02:30:15;;;;;;;19.45;8.85;;;;;;;28.27;100.00;100745.28;5071991;28;20086;-54
2022/07/25 02:32:41;;;;;;;20.48;10.30;;;;;;;27.65;100.00;100750.47;5071600;28;20069;-53
2022/07/25 02:35:07;;;;;;;16.85;10.82;;;;;;;28.02;100.00;100753.88;5069390;28;20068;-53
2022/07/25 02:37:33;;;;;;;18.07;10.37;;;;;;;27.91;100.00;100742.38;5072514;28;20096;-52
2022/07/25 02:39:58;;;;;;;16.42;10.32;;;;;;;27.38;100.00;100743.97;5074000;28;20032;-50
2022/07/25 02:42:24;;;;;;;16.73;10.50;;;;;;;27.48;100.00;100740.97;5070991;28;20033;-51
2022/07/25 02:44:49;;;;;;;16.63;10.43;;;;;;;27.55;100.00;100740.56;5070546;28;20052;-52
2022/07/25 02:47:15;;;;;;;21.02;11.70;;;;;;;27.76;100.00;100723.53;5071812;28;20029;-50
2022/07/25 02:49:40;;;;;;;20.40;10.32;;;;;;;27.87;100.00;100730.38;5066775;28;20080;-53
2022/07/25 02:52:06;;;;;;;19.15;9.68;;;;;;;27.77;100.00;100720.47;5070657;28;20044;-51
2022/07/25 02:54:31;;;;;;;15.75;10.07;;;;;;;27.63;100.00;100715.06;5066865;28;20048;-51
2022/07/25 02:56:57;;;;;;;25.15;11.30;;;;;;;27.73;100.00;100715.94;5073484;28;20065;-52
2022/07/25 02:59:22;;;;;;;23.23;11.32;;;;;;;27.95;100.00;100714.25;5069726;28;20060;-50
2022/07/25 03:01:48;;;;;;;15.60;10.77;;;;;;;28.25;100.00;100711.81;5075252;28;20037;-53
2022/07/25 03:04:13;;;;;;;18.27;10.27;;;;;;;28.11;100.00;100715.44;5068335;28;20031;-50
2022/07/25 03:06:39;;;;;;;16.25;9.82;;;;;;;28.30;100.00;100711.66;5072875;28;20055;-50
2022/07/25 03:09:04;;;;;;;16.30;9.75;;;;;;;28.23;100.00;100716.81;5070902;28;20060;-52
2022/07/25 03:11:30;;;;;;;14.32;10.20;;;;;;;28.02;100.00;100712.66;5071582;28;20060;-49
2022/07/25 03:13:56;;;;;;;16.63;9.90;;;;;;;27.95;100.00;100714.25;5071936;28;20029;-51
2022/07/25 03:16:22;;;;;;;14.80;9.13;;;;;;;27.76;100.00;100701.56;5073107;28;20100;-49
2022/07/25 03:18:47;;;;;;;14.68;9.02;;;;;;;27.84;100.00;100698.03;5070563;28;20040;-47
2022/07/25 03:21:12;;;;;;;15.65;9.07;;;;;;;28.12;100.00;100702.50;5071144;28;20029;-49
2022/07/25 03:23:39;;;;;;;14.30;9.13;;;;;;;27.99;100.00;100698.75;5073991;28;20041;-48
2022/07/25 03:26:04;;;;;;;15.57;9.05;;;;;;;28.16;100.00;100693.34;5074532;28;20057;-52
2022/07/25 03:28:30;;;;;;;13.30;8.65;;;;;;;28.10;100.00;100694.56;5073181;28;20056;-52
2022/07/25 03:30:55;;;;;;;16.00;8.65;;;;;;;27.95;100.00;100697.78;5081893;28;20048;-48
2022/07/25 03:33:21;;;;;;;19.63;9.45;;;;;;;28.00;100.00;100694.88;5076461;28;20123;-49
2022/07/25 03:35:46;;;;;;;14.25;9.48;;;;;;;27.95;100.00;100692.28;5076422;28;20044;-55
2022/07/25 03:38:12;;;;;;;19.77;10.30;;;;;;;27.80;100.00;100693.50;5079566;28;20085;-49
2022/07/25 03:40:38;;;;;;;12.75;9.15;;;;;;;27.51;100.00;100684.63;5077813;28;20054;-49
2022/07/25 03:43:03;;;;;;;16.38;10.38;;;;;;;27.24;100.00;100688.31;5074550;28;20029;-51
2022/07/25 03:45:29;;;;;;;15.70;9.55;;;;;;;27.16;100.00;100687.94;5079882;28;20045;-53
2022/07/25 03:47:54;;;;;;;17.38;10.25;;;;;;;27.48;100.00;100680.53;5072365;28;20029;-53
2022/07/25 03:50:20;;;;;;;12.57;8.77;;;;;;;27.27;100.00;100683.00;5079420;28;20033;-51
2022/07/25 03:52:46;;;;;;;15.63;9.23;;;;;;;27.18;100.00;100682.94;5074817;28;20041;-49
2022/07/25 03:55:11;;;;;;;15.18;9.38;;;;;;;27.24;100.00;100675.41;5075643;28;20041;-52
2022/07/25 03:57:38;;;;;;;18.55;9.40;;;;;;;27.15;100.00;100674.53;5076944;28;20043;-51
2022/07/25 04:00:05;;;;;;;15.40;9.47;;;;;;;27.10;100.00;100669.16;5077110;28;20045;-51
2022/07/25 04:02:31;;;;;;;15.37;8.80;;;;;;;27.04;100.00;100672.03;5076434;28;20039;-53
2022/07/25 04:04:57;;;;;;;;;;;;;;;26.72;100.00;100668.34;5075827;28;20055;-54
2022/07/25 04:07:22;;;;;;;14.40;8.93;;;;;;;26.92;100.00;100669.03;5072924;28;19921;-51
2022/07/25 04:09:50;;;;;;;22.90;9.57;;;;;;;27.28;100.00;100675.56;5081743;28;20028;-48
2022/07/25 04:12:16;;;;;;;14.23;9.60;;;;;;;27.21;100.00;100665.03;5073258;28;20033;-52
2022/07/25 04:14:41;;;;;;;14.80;8.90;;;;;;;27.10;100.00;100669.16;5075309;28;20048;-50
2022/07/25 04:17:07;;;;;;;16.20;9.05;;;;;;;27.17;100.00;100664.88;5077487;28;20068;-50
2022/07/25 04:19:32;;;;;;;22.90;10.80;;;;;;;27.28;100.00;100667.34;5077044;28;20041;-49
2022/07/25 04:21:58;;;;;;;20.70;9.15;;;;;;;27.02;100.00;100668.81;5077345;28;20040;-53
2022/07/25 04:24:23;;;;;;;14.70;8.98;;;;;;;26.89;100.00;100659.50;5076150;28;20047;-50
2022/07/25 04:26:48;;;;;;;15.85;8.30;;;;;;;26.38;100.00;100663.34;5072737;28;20040;-53
2022/07/25 04:29:14;;;;;;;20.38;13.02;;;;;;;26.94;100.00;100664.03;5073438;28;20121;-51
2022/07/25 04:31:40;;;;;;;16.75;9.05;;;;;;;27.07;100.00;100667.06;5080003;28;20091;-54
2022/07/25 04:34:05;;;;;;;13.73;7.93;;;;;;;26.91;100.00;100678.38;5074873;28;20029;-55
2022/07/25 04:36:30;;;;;;;23.40;9.48;;;;;;;27.00;100.00;100670.22;5075545;28;20036;-52
2022/07/25 04:38:56;;;;;;;11.73;8.32;;;;;;;26.83;100.00;100665.38;5075454;28;20123;-49
2022/07/25 04:41:21;;;;;;;14.25;8.57;;;;;;;26.75;100.00;100664.19;5071196;28;20045;-48
2022/07/25 04:43:47;;;;;;;16.25;8.65;;;;;;;26.62;100.00;100671.34;5073019;28;20048;-49
2022/07/25 04:46:17;;;;;;;15.70;8.60;;;;;;;26.61;100.00;100670.50;5074628;28;20071;-52
2022/07/25 04:48:42;;;;;;;16.77;8.03;;;;;;;26.58;100.00;100659.38;5073002;28;20044;-48
2022/07/25 04:51:09;;;;;;;16.35;8.40;;;;;;;26.40;100.00;100661.94;5073880;28;20043;-52
2022/07/25 04:53:34;;;;;;;11.43;7.90;;;;;;;26.89;100.00;100658.69;5068581;28;20060;-53
2022/07/25 04:56:00;;;;;;;16.48;8.82;;;;;;;27.40;100.00;100653.03;5070293;28;20032;-50
2022/07/25 04:58:25;;;;;;;13.10;8.38;;;;;;;26.55;100.00;100660.78;5070768;28;20059;-52
2022/07/25 05:00:50;;;;;;;13.50;8.57;;;;;;;26.66;100.00;100658.63;5072450;28;20036;-50
2022/07/25 05:03:16;;;;;;;18.02;7.88;;;;;;;26.91;100.00;100656.44;5071046;28;20052;-53
2022/07/25 05:05:42;;;;;;;18.52;8.82;;;;;;;26.89;100.00;100659.50;5071986;28;20120;-52
2022/07/25 05:08:07;;;;;;;11.85;8.13;;;;;;;27.10;100.00;100658.97;5073158;28;20040;-51
2022/07/25 05:10:33;;;;;;;14.10;8.35;;;;;;;27.07;100.00;100643.16;5075247;28;20032;-51
2022/07/25 05:12:58;;;;;;;14.45;8.40;;;;;;;27.77;100.00;100648.25;5070669;28;20052;-50
2022/07/25 05:15:24;;;;;;;14.60;9.55;;;;;;;27.81;100.00;100659.41;5071826;28;20155;-50
2022/07/25 05:17:49;;;;;;;21.35;9.35;;;;;;;27.59;100.00;100664.66;5070916;28;20041;-53
2022/07/25 05:20:15;;;;;;;11.07;7.82;;;;;;;27.40;100.00;100655.78;5073815;28;20032;-54
2022/07/25 05:22:41;;;;;;;15.65;8.25;;;;;;;28.02;100.00;100648.66;5076829;28;20028;-53
2022/07/25 05:25:08;;;;;;;16.77;8.57;;;;;;;27.28;100.00;100648.13;5073687;28;20045;-53
2022/07/25 05:27:34;;;;;;;15.57;9.20;;;;;;;27.43;100.00;100649.66;5073943;28;20032;-52
2022/07/25 05:29:59;;;;;;;15.95;8.48;;;;;;;27.75;100.00;100645.81;5071288;28;20037;-51
2022/07/25 05:32:25;;;;;;;16.25;7.78;;;;;;;27.85;100.00;100652.94;5074401;28;20047;-51
2022/07/25 05:34:51;;;;;;;12.27;7.30;;;;;;;27.79;100.00;100658.91;5072900;28;20093;-49
2022/07/25 05:37:16;;;;;;;13.07;6.95;;;;;;;27.85;100.00;100658.44;5073558;28;20048;-51
2022/07/25 05:39:43;;;;;;;10.23;6.88;;;;;;;27.55;100.00;100663.66;5070367;28;20041;-52
2022/07/25 05:42:08;;;;;;;;;;;;;;;27.65;100.00;100661.75;5074200;28;20039;-49
2022/07/25 05:44:34;;;;;;;16.57;6.70;;;;;;;27.37;100.00;100661.91;5072734;28;19921;-50
2022/07/25 05:46:59;;;;;;;;;;;;;;;27.54;100.00;100653.78;5069184;28;20092;-53
2022/07/25 05:49:24;;;;;;;13.73;7.37;;;;;;;27.72;100.00;100659.38;5071134;28;19912;-54
2022/07/25 05:51:51;;;;;;;13.98;7.18;;;;;;;27.34;100.00;100653.19;5068623;28;20041;-48
2022/07/25 05:54:16;;;;;;;13.67;7.67;;;;;;;27.65;100.00;100656.25;5069850;28;20025;-51
2022/07/25 05:56:42;;;;;;;15.23;7.93;;;;;;;27.41;100.00;100662.91;5071384;28;20025;-52
2022/07/25 05:59:08;;;;;;;11.52;7.55;;;;;;;27.44;100.00;100665.84;5071806;28;20036;-49
2022/07/25 06:01:33;;;;;;;17.08;8.23;;;;;;;27.47;100.00;100667.16;5070575;28;20047;-49
2022/07/25 06:03:59;;;;;;;;;;;;;;;27.57;100.00;100677.09;5073007;28;20097;-49
2022/07/25 06:06:24;;;;;;;15.10;8.07;;;;;;;27.74;100.00;100679.09;5070006;28;19992;-49
2022/07/25 06:08:49;;;;;;;13.25;7.90;;;;;;;27.73;100.00;100680.22;5070567;28;20037;-54
2022/07/25 06:11:15;;;;;;;13.93;8.55;;;;;;;27.91;100.00;100681.94;5066422;28;20057;-53
2022/07/25 06:13:40;;;;;;;12.18;6.90;;;;;;;27.68;100.00;100681.16;5069748;28;20036;-50
2022/07/25 06:16:06;;;;;;;13.05;8.35;;;;;;;27.90;100.00;100691.28;5070061;28;20039;-52
2022/07/25 06:18:32;;;;;;;;;;;;;;;27.71;100.00;100687.97;5071858;28;20037;-50
2022/07/25 06:20:57;;;;;;;16.20;8.23;;;;;;;27.71;100.00;100685.22;5069750;28;19913;-49
2022/07/25 06:23:22;;;;;;;;;;;;;;;28.53;100.00;100684.84;5072083;28;20044;-52
2022/07/25 06:25:48;;;;;;;15.20;7.90;;;;;;;28.69;100.00;100684.38;5070422;28;19920;-51
2022/07/25 06:28:14;;;;;;;;;;;;;;;28.28;100.00;100679.00;5076231;28;20033;-51
2022/07/25 06:30:40;;;;;;;14.87;8.17;;;;;;;28.52;100.00;100687.91;5069667;28;19921;-52
2022/07/25 06:33:06;;;;;;;12.17;8.37;;;;;;;29.04;100.00;100687.16;5073201;28;20041;-51
2022/07/25 06:35:31;;;;;;;;;;;;;;;28.17;100.00;100683.16;5066059;28;20040;-48
2022/07/25 06:37:57;;;;;;;14.57;9.10;;;;;;;27.83;100.00;100696.41;5074673;28;19912;-49
2022/07/25 06:40:23;;;;;;;;;;;;;;;27.88;100.00;100695.47;5068131;28;20049;-54
2022/07/25 06:42:48;;;;;;;15.83;8.07;;;;;;;28.60;100.00;100700.84;5069505;28;19935;-52
2022/07/25 06:45:15;;;;;;;11.90;7.50;;;;;;;28.58;100.00;100692.94;5068574;28;20064;-54
2022/07/25 06:47:41;;;;;;;;;;;;;;;29.08;100.00;100710.13;5070890;28;20047;-54
2022/07/25 06:50:09;;;;;;;11.13;5.80;;;;;;;29.09;100.00;100688.94;5070093;28;19975;-50
2022/07/25 06:52:34;;;;;;;10.77;6.07;;;;;;;29.48;100.00;100692.59;5071108;28;20037;-53
2022/07/25 06:55:00;;;;;;;;;;;;;;;29.43;100.00;100699.13;5072514;28;20036;-52
2022/07/25 06:57:26;;;;;;;10.00;5.37;;;;;;;30.40;100.00;100704.22;5067485;28;19913;-49
2022/07/25 06:59:51;;;;;;;;;;;;;;;29.15;100.00;100693.13;5069337;28;20040;-53
2022/07/25 07:02:17;;;;;;;10.40;4.90;;;;;;;29.33;100.00;100694.72;5067299;28;19897;-51
2022/07/25 07:04:43;;;;;;;;;;;;;;;29.21;100.00;100685.53;5071991;28;20048;-51
2022/07/25 07:07:08;;;;;;;9.07;3.70;;;;;;;29.18;100.00;100686.97;5072460;28;19940;-50
2022/07/25 07:09:34;;;;;;;;;;;;;;;28.90;100.00;100692.84;5073721;28;20064;-51
2022/07/25 07:11:59;;;;;;;8.87;3.57;;;;;;;29.30;100.00;100683.56;5073499;28;19935;-52
2022/07/25 07:14:24;;;;;;;;;;;;;;;28.69;100.00;100687.94;5073909;28;20025;-49
2022/07/25 07:16:50;;;;;;;5.07;2.80;;;;;;;28.73;100.00;100694.41;5074226;28;19917;-52
2022/07/25 07:19:16;;;;;;;;;;;;;;;29.19;100.00;100691.34;5074428;28;20040;-48
2022/07/25 07:21:42;;;;;;;9.30;4.27;;;;;;;29.43;100.00;100688.09;5075192;28;19912;-53
2022/07/25 07:24:08;;;;;;;5.83;2.27;;;;;;;28.74;100.00;100679.53;5072089;28;20025;-49
2022/07/25 07:26:33;;;;;;;;;;;;;;;29.53;100.00;100681.44;5072101;28;20047;-50
2022/07/25 07:29:00;;;;;;;5.07;2.30;;;;;;;29.90;100.00;100684.50;5071977;28;19913;-50
2022/07/25 07:31:25;;;;;;;4.77;2.53;;;;;;;29.94;100.00;100684.66;5069296;28;20071;-51
2022/07/25 07:33:51;;;;;;;;;;;;;;;29.56;100.00;100690.97;5072949;28;20028;-51
2022/07/25 07:36:17;;;;;;;9.50;2.63;;;;;;;29.82;100.00;100677.09;5072779;28;19917;-48
2022/07/25 07:38:43;;;;;;;;;;;;;;;29.60;100.00;100692.75;5074680;28;20032;-50
2022/07/25 07:41:09;;;;;;;7.57;3.03;;;;;;;29.77;100.00;100693.81;5072636;28;19919;-52
2022/07/25 07:43:35;;;;;;;;;;;;;;;29.42;100.00;100688.41;5072605;28;20025;-51
2022/07/25 07:46:00;;;;;;;6.30;2.27;;;;;;;29.29;100.00;100688.22;5071984;28;19924;-51
2022/07/25 07:48:26;;;;;;;;;;;;;;;29.10;100.00;100690.56;5073468;28;20025;-47
2022/07/25 07:50:52;;;;;;;7.07;2.23;;;;;;;29.36;100.00;100687.75;5073513;28;19959;-49
2022/07/25 07:53:18;;;;;;;6.67;2.33;;;;;;;29.56;100.00;100697.31;5071779;28;20040;-48
2022/07/25 07:55:54;;;;;;;;;;;;;;;29.53;100.00;100695.22;5073982;28;20041;-53
2022/07/25 07:58:20;;;;;;;8.27;2.33;;;;;;;29.29;100.00;100696.50;5074622;28;19912;-48
2022/07/25 08:00:48;;;;;;;9.77;2.57;;;;;;;29.28;100.00;100697.63;5075242;28;20050;-55
2022/07/25 08:03:19;;;;;;;8.43;2.50;;;;;;;28.59;100.00;100702.00;5072221;28;20093;-51
2022/07/25 08:05:45;;;;;;;6.60;2.60;;;;;;;28.49;100.00;100705.88;5080503;28;20025;-49
2022/07/25 08:08:12;;;;;;;6.27;2.03;;;;;;;28.67;100.00;100695.72;5071977;28;20029;-52
2022/07/25 08:10:40;;;;;;;8.77;2.50;;;;;;;29.00;100.00;100698.00;5074860;28;20096;-53
2022/07/25 08:13:18;;;;;;;6.33;2.27;;;;;;;30.02;100.00;100705.09;5072512;28;20036;-47
2022/07/25 08:15:46;;;;;;;7.93;1.87;;;;;;;29.23;100.00;100702.53;5075173;28;20045;-54
2022/07/25 08:18:13;;;;;;;6.03;1.43;;;;;;;29.90;100.00;100705.78;5071666;28;20040;-49
2022/07/25 08:20:39;;;;;;;4.20;1.60;;;;;;;30.02;100.00;100707.84;5070073;28;20063;-50
2022/07/25 08:23:05;;;;;;;3.50;1.20;;;;;;;29.94;100.00;100703.13;5070745;28;20036;-51
2022/07/25 08:25:31;;;;;;;3.57;1.50;;;;;;;29.68;100.00;100709.56;5068484;28;20029;-53
2022/07/25 08:27:56;;;;;;;;;;;;;;;30.49;100.00;100717.97;5072768;28;20073;-52
2022/07/25 08:30:22;;;;;;;4.67;1.40;;;;;;;30.42;100.00;100715.72;5070327;28;19920;-52
2022/07/25 08:32:53;;;;;;;10.77;1.80;;;;;;;30.11;100.00;100710.56;5071851;28;20033;-50
2022/07/25 08:35:20;;;;;;;5.00;2.17;;;;;;;30.16;100.00;100711.16;5067625;28;20040;-48
2022/07/25 08:37:47;;;;;;;3.43;1.37;;;;;;;30.07;100.00;100704.91;5070824;28;20036;-53
2022/07/25 08:40:14;;;;;;;10.57;1.57;;;;;;;30.58;100.00;100709.63;5072794;28;20039;-48
2022/07/25 08:42:40;;;;;;;11.70;2.33;;;;;;;29.89;100.00;100709.66;5071617;28;20070;-54
2022/07/25 08:45:07;;;;;;;;;;;;;;;29.58;100.00;100714.31;5069178;28;20069;-51
2022/07/25 08:47:34;;;;;;;9.32;1.33;;;;;;;29.71;100.00;100719.94;5070090;28;19919;-54
2022/07/25 08:50:02;;;;;;;16.77;7.17;;;;;;;28.99;100.00;100712.09;5069788;28;20101;-50
2022/07/25 08:52:27;;;;;;;8.60;2.23;;;;;;;29.57;100.00;100718.19;5072943;28;20037;-51
2022/07/25 08:54:54;;;;;;;8.03;1.87;;;;;;;29.97;100.00;100711.56;5073394;28;20116;-50
2022/07/25 08:57:20;;;;;;;;;;;;;;;29.68;100.00;100720.59;5069967;28;20029;-50
2022/07/25 08:59:45;;;;;;;16.33;3.37;;;;;;;29.80;100.00;100722.66;5072822;28;19972;-49
2022/07/25 09:02:14;;;;;;;;;;;;;;;29.82;100.00;100721.19;5067850;28;20044;-47
2022/07/25 09:04:40;;;;;;;8.90;1.70;;;;;;;30.13;100.00;100731.13;5068846;28;19920;-55
2022/07/25 09:07:06;;;;;;;;;;;;;;;29.76;100.00;100728.81;5073117;28;20116;-51
2022/07/25 09:09:35;;;;;;;2.72;1.08;;;;;;;29.37;100.00;100732.63;5069489;28;19913;-53
2022/07/25 09:12:02;;;;;;;3.50;1.30;;;;;;;30.30;100.00;100730.22;5070682;28;20052;-53
2022/07/25 09:14:30;;;;;;;;;;;;;;;30.42;100.00;100743.31;5068365;28;20036;-51
2022/07/25 09:16:55;;;;;;;9.77;2.43;;;;;;;30.59;100.00;100747.13;5068806;28;19928;-53
2022/07/25 09:19:24;;;;;;;6.57;1.90;;;;;;;30.74;100.00;100738.28;5072740;28;20033;-53
2022/07/25 09:22:05;;;;;;;4.33;1.87;;;;;;;31.12;100.00;100743.97;5070773;28;20062;-50
2022/07/25 09:24:33;;;;;;;4.83;1.20;;;;;;;31.38;100.00;100742.97;5072276;28;20032;-54
2022/07/25 09:27:07;;;;;;;6.45;1.70;;;;;;;31.27;100.00;100731.53;5071181;28;20044;-54
2022/07/25 09:29:33;;;;;;;19.95;9.23;;;;;;;30.64;100.00;100730.38;5071968;28;20031;-53
2022/07/25 09:32:01;;;;;;;13.07;3.97;;;;;;;30.88;100.00;100729.72;5068272;28;20033;-53
2022/07/25 09:34:36;;;;;;;6.07;1.90;;;;;;;30.23;100.00;100743.75;5069661;28;20029;-51
2022/07/25 09:37:08;;;;;;;11.60;2.67;;;;;;;30.82;100.00;100741.31;5075912;28;20056;-53
2022/07/25 09:39:36;;;;;;;14.90;3.90;;;;;;;31.87;100.00;100751.41;5068488;28;20044;-53
2022/07/25 09:42:13;;;;;;;9.90;2.30;;;;;;;31.05;100.00;100759.13;5070458;28;20028;-49
2022/07/25 09:44:39;;;;;;;7.68;1.88;;;;;;;30.99;100.00;100754.97;5069900;28;20083;-52
2022/07/25 09:47:12;;;;;;;4.80;1.52;;;;;;;30.36;100.00;100750.16;5068435;28;20024;-50
2022/07/25 09:49:42;;;;;;;10.25;1.90;;;;;;;30.25;100.00;100746.97;5069744;28;20037;-50
2022/07/25 09:52:10;;;;;;;17.88;3.58;;;;;;;29.96;100.00;100753.22;5069363;28;20049;-55
2022/07/25 09:54:39;;;;;;;8.48;2.72;;;;;;;30.24;100.00;100767.41;5068936;28;20040;-52
2022/07/25 09:57:05;;;;;;;8.60;1.80;;;;;;;29.73;100.00;100753.47;5069120;28;20515;-52
2022/07/25 09:59:33;;;;;;;8.45;1.73;;;;;;;31.11;100.00;100768.03;5067553;28;20089;-52
2022/07/25 10:02:14;;;;;;;7.53;1.85;;;;;;;31.85;99.68;100770.28;5067114;28;20032;-50
2022/07/25 10:05:07;;;;;;;5.68;2.00;;;;;;;32.09;93.00;100779.78;5067085;28;20044;-51
2022/07/25 10:07:36;;;;;;;13.60;4.82;;;;;;;31.41;98.26;100786.50;5064422;28;20063;-51
2022/07/25 10:10:02;;;;;;;5.15;2.90;;;;;;;32.45;93.40;100782.91;5063934;28;20044;-53
2022/07/25 10:12:28;;;;;;;10.02;2.83;;;;;;;33.04;89.03;100792.63;5069548;28;20033;-51
2022/07/25 10:15:09;;;;;;;11.40;2.45;;;;;;;34.21;81.99;100798.53;5066943;28;20064;-52
2022/07/25 10:17:37;;;;;;;9.90;1.92;;;;;;;33.13;85.29;100813.84;5071098;28;20061;-51
2022/07/25 10:20:05;;;;;;;3.47;1.10;;;;;;;32.09;91.42;100801.06;5068828;28;20095;-51
2022/07/25 10:22:39;;;;;;;5.72;2.38;;;;;;;32.86;89.44;100807.88;5068948;28;20037;-51
2022/07/25 10:25:17;;;;;;;6.95;2.33;;;;;;;32.42;89.50;100805.75;5067339;28;20036;-52
2022/07/25 10:27:47;;;;;;;9.27;3.70;;;;;;;32.99;87.50;100809.50;5066866;28;20029;-48
2022/07/25 10:30:22;;;;;;;16.90;4.85;;;;;;;33.98;82.34;100810.25;5064978;28;20041;-50
2022/07/25 10:33:02;;;;;;;7.35;1.65;;;;;;;33.02;86.00;100825.41;5066978;28;20036;-50
2022/07/25 10:35:28;;;;;;;5.47;1.55;;;;;;;31.90;93.30;100799.66;5072603;28;20048;-51
2022/07/25 10:37:55;;;;;;;5.13;2.47;;;;;;;31.78;92.98;100811.50;5072078;28;20036;-48
2022/07/25 10:40:31;;;;;;;20.80;9.20;;;;;;;32.43;93.59;100808.16;5077025;28;20033;-53
2022/07/25 10:43:02;;;;;;;11.93;3.85;;;;;;;32.37;95.70;100809.53;5076120;28;20029;-51
2022/07/25 10:45:52;;;;;;;10.00;2.53;;;;;;;33.28;88.62;100818.63;5071047;28;20144;-49
2022/07/25 10:48:31;;;;;;;10.45;2.33;;;;;;;32.18;90.39;100808.13;5074206;28;20124;-52
2022/07/25 10:51:07;;;;;;;12.82;3.47;;;;;;;32.96;86.33;100815.72;5075228;28;20033;-50
2022/07/25 10:53:53;;;;;;;11.80;5.13;;;;;;;31.99;92.85;100816.16;5072127;28;20033;-50
2022/07/25 10:56:25;;;;;;;5.10;2.22;;;;;;;31.86;90.82;100827.19;5071132;28;20084;-48
2022/07/25 10:58:56;;;;;;;5.10;2.03;;;;;;;32.08;86.64;100830.69;5071760;28;20051;-49
2022/07/25 11:01:30;;;;;;;13.82;3.75;;;;;;;33.61;81.74;100823.13;5077651;28;20032;-53
2022/07/25 11:03:57;;;;;;;7.05;2.50;;;;;;;34.07;76.88;100835.84;5072704;28;20033;-52
2022/07/25 11:06:38;;;;;;;7.45;2.58;;;;;;;33.29;74.42;100841.59;5072632;28;20059;-52
2022/07/25 11:09:13;;;;;;;7.40;2.00;;;;;;;32.10;82.26;100833.94;5074005;28;20044;-50
2022/07/25 11:11:46;;;;;;;11.48;2.55;;;;;;;32.38;83.32;100827.75;5071894;28;20036;-53
2022/07/25 11:14:17;;;;;;;10.85;3.47;;;;;;;32.14;86.42;100834.84;5078473;28;20043;-52
2022/07/25 11:16:45;;;;;;;8.90;3.17;;;;;;;32.93;84.55;100841.34;5075362;28;20040;-53
2022/07/25 11:19:22;;;;;;;13.05;2.70;;;;;;;32.27;87.69;100829.31;5075307;28;20033;-51
2022/07/25 11:21:51;;;;;;;10.32;2.33;;;;;;;32.25;83.07;100834.38;5072239;28;20035;-50
2022/07/25 11:24:18;;;;;;;8.18;2.63;;;;;;;32.30;83.05;100831.44;5071519;28;20030;-53